createdAt,value
2018-06-23T00:01:26.158Z,13.80
2018-06-23T00:03:55.462Z,13.70
2018-06-23T00:06:24.749Z,13.70
2018-06-23T00:08:53.967Z,13.60
2018-06-23T00:11:23.177Z,13.70
2018-06-23T00:13:52.525Z,13.70
2018-06-23T00:16:21.774Z,13.70
2018-06-23T00:18:51.074Z,13.70
2018-06-23T00:21:21.574Z,13.70
2018-06-23T00:41:37.033Z,13.60
2018-06-23T00:44:06.672Z,13.60
2018-06-23T00:46:36.565Z,13.50
2018-06-23T01:09:21.723Z,13.00
2018-06-23T01:11:51.053Z,13.00
2018-06-23T01:14:20.294Z,13.00
2018-06-23T01:16:49.562Z,13.00
2018-06-23T01:19:19.158Z,13.00
2018-06-23T01:39:34.122Z,12.70
2018-06-23T01:42:03.391Z,12.70
2018-06-23T01:44:33.345Z,12.70
2018-06-23T01:47:02.591Z,12.60
2018-06-23T01:49:31.997Z,12.60
2018-06-23T01:52:01.624Z,12.50
2018-06-23T01:54:30.842Z,12.50
2018-06-23T01:57:00.053Z,12.50
2018-06-23T01:59:29.385Z,12.50
2018-06-23T02:01:58.846Z,12.50
2018-06-23T02:04:29.810Z,12.40
2018-06-23T02:06:59.832Z,12.40
2018-06-23T02:09:29.104Z,12.40
2018-06-23T02:11:58.363Z,12.40
2018-06-23T02:14:32.945Z,12.40
2018-06-23T02:17:08.829Z,12.40
2018-06-23T02:20:45.274Z,12.40
2018-06-23T02:23:20.115Z,12.50
2018-06-23T02:25:54.850Z,12.40
2018-06-23T02:46:09.581Z,11.60
2018-06-23T02:48:38.968Z,11.60
2018-06-23T02:51:08.311Z,11.60
2018-06-23T02:53:38.357Z,11.60
2018-06-23T02:56:08.301Z,11.60
2018-06-23T02:58:37.603Z,11.60
2018-06-23T03:01:06.878Z,11.70
2018-06-23T03:03:39.379Z,11.70
2018-06-23T03:06:08.773Z,11.50
2018-06-23T03:08:38.263Z,11.40
2018-06-23T03:11:08.205Z,11.40
2018-06-23T03:13:37.656Z,11.40
2018-06-23T03:16:07.571Z,11.40
2018-06-23T03:18:36.765Z,11.40
2018-06-23T03:21:06.190Z,11.30
2018-06-23T03:23:36.581Z,11.30
2018-06-23T03:26:05.853Z,11.40
2018-06-23T03:28:35.252Z,11.40
2018-06-23T03:31:04.551Z,11.40
2018-06-23T03:33:33.829Z,11.40
2018-06-23T03:36:03.170Z,11.40
2018-06-23T03:38:32.418Z,11.40
2018-06-23T03:41:01.706Z,11.40
2018-06-23T03:43:30.953Z,11.40
2018-06-23T03:46:00.729Z,11.30
2018-06-23T03:48:30.027Z,11.40
2018-06-23T03:50:59.491Z,11.40
2018-06-23T03:53:28.690Z,11.40
2018-06-23T03:55:59.604Z,11.40
2018-06-23T03:58:29.049Z,11.40
2018-06-23T04:01:04.441Z,11.40
2018-06-23T04:03:33.756Z,11.40
2018-06-23T04:06:05.115Z,11.40
2018-06-23T04:08:35.147Z,11.50
2018-06-23T04:11:04.559Z,11.60
2018-06-23T04:13:33.793Z,11.50
2018-06-23T04:16:03.062Z,11.50
2018-06-23T04:18:32.296Z,11.50
2018-06-23T04:21:01.719Z,11.50
2018-06-23T04:23:30.934Z,11.50
2018-06-23T04:26:00.208Z,11.60
2018-06-23T04:28:29.505Z,11.60
2018-06-23T04:30:58.845Z,11.50
2018-06-23T04:33:28.102Z,11.50
2018-06-23T04:35:58.122Z,11.50
2018-06-23T04:38:27.411Z,11.40
2018-06-23T04:40:57.218Z,11.40
2018-06-23T04:43:27.137Z,11.40
2018-06-23T04:45:56.926Z,11.40
2018-06-23T05:06:05.729Z,11.80
2018-06-23T05:08:35.989Z,11.90
2018-06-23T05:11:05.585Z,12.10
2018-06-23T05:31:21.290Z,12.50
2018-06-23T05:33:51.201Z,12.60
2018-06-23T05:36:21.237Z,12.70
2018-06-23T05:38:50.538Z,12.60
2018-06-23T05:41:19.742Z,12.70
2018-06-23T06:01:35.744Z,13.00
2018-06-23T06:04:05.354Z,13.10
2018-06-23T06:06:34.779Z,13.30
2018-06-23T06:09:05.886Z,13.40
2018-06-23T06:11:35.279Z,13.60
2018-06-23T06:14:05.378Z,13.80
2018-06-23T06:17:25.110Z,13.80
2018-06-23T06:19:55.498Z,14.00
2018-06-23T06:22:25.993Z,14.10
2018-06-23T06:24:55.604Z,14.20
2018-06-23T06:27:24.957Z,14.20
2018-06-23T06:29:54.955Z,14.20
2018-06-23T06:32:24.638Z,14.30
2018-06-23T06:52:40.440Z,14.60
2018-06-23T06:55:09.654Z,14.70
2018-06-23T06:57:38.881Z,14.70
2018-06-23T07:17:55.088Z,15.00
2018-06-23T07:20:24.401Z,15.10
2018-06-23T07:22:53.712Z,15.10
2018-06-23T07:25:23.020Z,15.10
2018-06-23T07:27:52.258Z,15.20
2018-06-23T07:30:21.613Z,15.20
2018-06-23T07:32:50.910Z,15.20
2018-06-23T07:35:20.793Z,15.30
2018-06-23T07:37:51.325Z,15.20
2018-06-23T07:58:01.136Z,15.30
2018-06-23T08:00:30.522Z,15.40
2018-06-23T08:02:59.756Z,15.40
2018-06-23T08:05:29.021Z,15.50
2018-06-23T08:07:58.381Z,15.60
2018-06-23T08:10:27.645Z,15.60
2018-06-23T08:12:56.991Z,15.70
2018-06-23T08:15:26.948Z,15.80
2018-06-23T08:17:56.185Z,15.80
2018-06-23T08:20:25.451Z,15.90
2018-06-23T08:22:55.458Z,15.90
2018-06-23T08:25:25.067Z,16.00
2018-06-23T08:27:54.358Z,16.00
2018-06-23T08:30:23.893Z,16.00
2018-06-23T08:32:53.190Z,16.10
2018-06-23T08:35:22.414Z,16.20
2018-06-23T08:37:51.661Z,16.20
2018-06-23T08:40:21.504Z,16.10
2018-06-23T08:42:50.789Z,16.20
2018-06-23T08:45:20.128Z,16.20
2018-06-23T08:47:49.451Z,16.30
2018-06-23T08:50:18.906Z,16.30
2018-06-23T08:52:48.295Z,16.30
2018-06-23T08:55:17.642Z,16.30
2018-06-23T08:57:47.047Z,16.30
2018-06-23T09:00:16.249Z,16.40
2018-06-23T09:02:45.535Z,16.40
2018-06-23T09:22:59.990Z,16.50
2018-06-23T09:25:30.206Z,16.50
2018-06-23T10:09:27.562Z,16.80
2018-06-23T10:11:56.895Z,16.90
2018-06-23T10:32:11.485Z,17.10
2018-06-23T10:34:40.665Z,17.20
2018-06-23T10:37:09.938Z,17.30
2018-06-23T10:39:39.218Z,17.30
2018-06-23T10:42:08.509Z,17.40
2018-06-23T10:44:37.765Z,17.40
2018-06-23T10:47:07.202Z,17.50
2018-06-23T10:49:36.471Z,17.50
2018-06-23T10:52:05.693Z,17.60
2018-06-23T10:54:35.011Z,17.70
2018-06-23T10:57:04.941Z,17.80
2018-06-23T10:59:34.207Z,17.80
2018-06-23T11:02:04.035Z,17.90
2018-06-23T11:04:33.291Z,17.90
2018-06-23T11:07:03.092Z,17.90
2018-06-23T11:09:32.419Z,17.80
2018-06-23T11:12:01.935Z,17.80
2018-06-23T11:14:31.284Z,18.00
2018-06-23T11:17:00.507Z,18.10
2018-06-23T11:19:30.486Z,18.10
2018-06-23T11:21:59.682Z,18.10
2018-06-23T11:24:29.150Z,18.00
2018-06-23T11:44:43.532Z,18.50
2018-06-23T11:47:12.769Z,18.50
2018-06-23T11:49:41.953Z,18.60
2018-06-23T11:52:11.196Z,18.70
2018-06-23T11:54:40.810Z,18.80
2018-06-23T11:57:10.029Z,18.80
2018-06-23T11:59:39.343Z,18.70
2018-06-23T12:02:09.985Z,18.70
2018-06-23T12:22:24.931Z,19.10
2018-06-23T12:24:54.952Z,19.30
2018-06-23T12:27:24.221Z,19.40
2018-06-23T12:29:53.485Z,19.40
2018-06-23T12:32:23.020Z,19.50
2018-06-23T12:34:52.361Z,19.40
2018-06-23T12:37:22.269Z,19.50
2018-06-23T12:39:52.657Z,19.60
2018-06-23T12:42:21.919Z,19.70
2018-06-23T13:02:36.846Z,20.20
2018-06-23T13:05:07.481Z,20.40
2018-06-23T13:27:51.506Z,23.70
2018-06-23T13:30:20.911Z,24.20
2018-06-23T13:32:50.273Z,24.60
2018-06-23T13:35:21.019Z,24.90
2018-06-23T13:37:51.119Z,25.10
2018-06-23T13:58:08.274Z,28.00
2018-06-23T14:00:38.292Z,28.10
2018-06-23T14:20:54.341Z,29.00
2018-06-23T14:23:23.633Z,28.90
2018-06-23T14:25:53.536Z,29.10
2018-06-23T14:28:22.778Z,29.20
2018-06-23T14:30:52.051Z,29.10
2018-06-23T14:33:21.974Z,29.40
2018-06-23T14:35:52.014Z,29.60
2018-06-23T14:38:21.245Z,29.90
2018-06-23T14:40:50.498Z,29.90
2018-06-23T14:43:19.734Z,30.00
2018-06-23T14:45:49.198Z,30.10
2018-06-23T14:48:18.739Z,29.60
2018-06-23T14:50:48.925Z,30.00
2018-06-23T14:53:18.190Z,30.30
2018-06-23T14:55:47.451Z,30.50
2018-06-23T14:58:16.863Z,30.40
2018-06-23T15:18:31.253Z,30.60
2018-06-23T15:21:00.455Z,30.90
2018-06-23T15:23:29.803Z,31.10
2018-06-23T15:25:59.134Z,30.90
2018-06-23T15:46:13.714Z,28.70
2018-06-23T15:48:43.585Z,28.40
2018-06-23T15:51:12.766Z,28.10
2018-06-23T15:53:42.181Z,28.00
2018-06-23T15:56:14.093Z,27.90
2018-06-23T15:58:43.531Z,27.70
2018-06-23T16:01:13.614Z,27.40
2018-06-23T16:21:21.878Z,24.80
2018-06-23T16:23:51.753Z,24.60
2018-06-23T16:26:22.017Z,24.40
2018-06-23T16:28:51.289Z,24.20
2018-06-23T16:31:20.667Z,24.00
2018-06-23T16:51:35.773Z,23.20
2018-06-23T16:54:05.725Z,23.10
2018-06-23T16:56:35.102Z,23.10
2018-06-23T16:59:05.129Z,22.90
2018-06-23T17:01:34.288Z,22.70
2018-06-23T17:04:03.629Z,22.60
2018-06-23T17:24:17.895Z,22.20
2018-06-23T17:26:47.088Z,22.20
2018-06-23T17:29:16.428Z,22.10
2018-06-23T17:31:45.714Z,22.10
2018-06-23T17:34:14.954Z,22.00
2018-06-23T17:36:44.309Z,21.90
2018-06-23T17:39:13.661Z,21.90
2018-06-23T17:41:43.199Z,21.80
2018-06-23T17:44:12.446Z,21.70
2018-06-23T18:04:27.482Z,21.50
2018-06-23T18:06:57.435Z,21.40
2018-06-23T18:09:27.380Z,21.40
2018-06-23T18:11:56.652Z,21.30
2018-06-23T18:14:25.866Z,21.30
2018-06-23T18:16:55.181Z,21.30
2018-06-23T18:37:10.489Z,20.70
2018-06-23T18:39:40.333Z,20.60
2018-06-23T18:42:10.369Z,20.50
2018-06-23T18:44:39.598Z,20.30
2018-06-23T18:47:08.832Z,20.30
2018-06-23T18:49:38.101Z,20.20
2018-06-23T19:09:52.933Z,19.60
2018-06-23T19:30:08.445Z,19.20
2018-06-23T19:32:37.725Z,19.20
2018-06-23T19:35:07.085Z,19.20
2018-06-23T19:37:36.535Z,19.20
2018-06-23T19:40:06.043Z,19.20
2018-06-23T19:42:35.261Z,19.20
2018-06-23T20:02:45.169Z,19.10
2018-06-23T20:05:15.194Z,19.10
2018-06-23T20:07:45.211Z,19.00
2018-06-23T20:10:14.772Z,18.90
2018-06-23T20:12:45.102Z,18.90
2018-06-23T20:33:10.441Z,18.40
2018-06-23T20:53:26.302Z,18.00
2018-06-23T20:55:55.655Z,17.90
2018-06-23T21:16:10.408Z,17.70
2018-06-23T21:18:39.739Z,17.60
2018-06-23T21:21:09.264Z,17.50
2018-06-23T21:23:38.722Z,17.50
2018-06-23T21:26:08.030Z,17.40
2018-06-23T21:28:38.713Z,17.30
2018-06-23T21:31:08.723Z,17.30
2018-06-23T21:33:38.014Z,17.30
2018-06-23T21:36:09.564Z,17.30
2018-06-23T21:38:38.802Z,17.20
2018-06-23T21:41:08.817Z,17.30
2018-06-23T21:43:38.186Z,17.20
2018-06-23T21:46:07.437Z,17.20
2018-06-23T22:06:22.766Z,16.90
2018-06-23T22:08:52.051Z,16.80
2018-06-23T22:11:21.539Z,16.70
2018-06-23T22:13:50.899Z,16.70
2018-06-23T22:16:20.218Z,16.70
2018-06-23T22:18:49.652Z,16.70
2018-06-23T22:21:19.190Z,16.70
2018-06-23T22:23:48.579Z,16.60
2018-06-23T22:26:18.509Z,16.70
2018-06-23T22:31:17.370Z,16.70
2018-06-23T22:33:46.604Z,16.60
2018-06-23T22:36:17.516Z,16.60
2018-06-23T22:38:46.774Z,16.60
2018-06-23T22:41:15.961Z,16.50
2018-06-23T22:43:45.266Z,16.40
2018-06-23T22:46:14.515Z,16.30
2018-06-23T23:06:29.510Z,15.60
2018-06-23T23:08:58.734Z,15.60
2018-06-23T23:29:13.510Z,15.40
2018-06-23T23:31:42.676Z,15.30
2018-06-23T23:34:11.925Z,15.30
2018-06-23T23:36:41.233Z,15.30
2018-06-23T23:39:11.846Z,15.20
2018-06-23T23:41:41.054Z,15.30
2018-06-23T23:44:10.287Z,15.20
2018-06-23T23:46:40.061Z,15.20
2018-06-23T23:49:09.293Z,15.20
2018-06-23T23:51:39.368Z,15.10
2018-06-23T23:54:08.742Z,15.00
2018-06-23T23:56:38.050Z,14.90
2018-06-23T23:59:08.059Z,14.90
